createdAt,value
2023-02-06T00:00:54.979Z,5.65
2023-02-06T00:03:21.739Z,5.45
2023-02-06T00:05:59.847Z,5.80
2023-02-06T00:08:27.574Z,5.85
2023-02-06T00:10:54.614Z,6.22
2023-02-06T00:13:22.036Z,6.30
2023-02-06T00:15:48.969Z,5.78
2023-02-06T00:18:15.888Z,5.97
2023-02-06T00:20:42.716Z,6.15
2023-02-06T00:23:10.096Z,6.75
2023-02-06T00:25:37.262Z,6.43
2023-02-06T00:28:05.351Z,5.57
2023-02-06T00:30:32.352Z,6.15
2023-02-06T00:32:59.473Z,6.28
2023-02-06T00:35:26.301Z,5.82
2023-02-06T00:37:53.201Z,6.45
2023-02-06T00:40:20.121Z,6.45
2023-02-06T00:42:47.064Z,6.93
2023-02-06T00:45:14.324Z,6.65
2023-02-06T00:47:41.357Z,7.22
2023-02-06T00:50:09.814Z,6.90
2023-02-06T00:52:36.862Z,7.32
2023-02-06T00:55:05.489Z,6.65
2023-02-06T00:57:32.356Z,6.60
2023-02-06T00:59:59.244Z,7.13
2023-02-06T01:02:26.810Z,6.68
2023-02-06T01:04:53.738Z,7.05
2023-02-06T01:07:20.749Z,5.45
2023-02-06T01:09:47.675Z,6.32
2023-02-06T01:12:14.900Z,5.78
2023-02-06T01:14:41.656Z,6.00
2023-02-06T01:17:11.587Z,5.38
2023-02-06T01:19:39.211Z,5.90
2023-02-06T01:22:07.347Z,5.05
2023-02-06T01:24:34.508Z,4.90
2023-02-06T01:27:01.554Z,5.10
2023-02-06T01:29:28.420Z,5.20
2023-02-06T01:31:56.177Z,4.75
2023-02-06T01:34:23.024Z,5.38
2023-02-06T01:36:49.976Z,5.07
2023-02-06T01:39:17.092Z,5.50
2023-02-06T01:41:44.083Z,5.63
2023-02-06T01:44:13.238Z,4.70
2023-02-06T01:46:42.683Z,4.50
2023-02-06T01:49:15.574Z,5.13
2023-02-06T01:51:43.740Z,5.20
2023-02-06T01:54:11.092Z,4.43
2023-02-06T01:56:45.023Z,5.28
2023-02-06T01:59:12.610Z,4.63
2023-02-06T02:01:41.186Z,5.25
2023-02-06T02:04:16.631Z,4.25
2023-02-06T02:06:50.418Z,4.65
2023-02-06T02:09:18.551Z,5.40
2023-02-06T02:11:46.033Z,5.40
2023-02-06T02:14:15.640Z,5.90
2023-02-06T02:16:45.591Z,5.72
2023-02-06T02:19:18.586Z,6.03
2023-02-06T02:22:15.361Z,5.25
2023-02-06T02:25:19.702Z,5.93
2023-02-06T02:28:05.072Z,4.68
2023-02-06T02:31:00.258Z,5.20
2023-02-06T02:33:42.076Z,5.57
2023-02-06T02:36:14.435Z,5.85
2023-02-06T02:39:00.466Z,6.50
2023-02-06T02:41:33.903Z,6.00
2023-02-06T02:44:08.625Z,5.75
2023-02-06T02:46:40.475Z,5.93
2023-02-06T02:49:18.608Z,6.53
2023-02-06T02:51:47.498Z,6.47
2023-02-06T02:54:14.281Z,6.85
2023-02-06T02:56:41.804Z,6.45
2023-02-06T02:59:16.797Z,6.30
2023-02-06T03:02:05.447Z,6.70
2023-02-06T03:04:41.085Z,6.15
2023-02-06T03:07:12.099Z,6.00
2023-02-06T03:10:03.433Z,6.45
2023-02-06T03:12:57.370Z,5.82
2023-02-06T03:15:31.684Z,6.93
2023-02-06T03:18:24.083Z,7.10
2023-02-06T03:20:52.254Z,7.35
2023-02-06T03:23:31.167Z,7.13
2023-02-06T03:26:02.137Z,7.38
2023-02-06T03:28:33.998Z,5.97
2023-02-06T03:31:05.840Z,6.70
2023-02-06T03:33:39.175Z,6.88
2023-02-06T03:36:08.508Z,7.30
2023-02-06T03:38:35.432Z,7.07
2023-02-06T03:41:03.772Z,6.22
2023-02-06T03:43:30.850Z,6.82
2023-02-06T03:46:04.782Z,7.82
2023-02-06T03:48:37.246Z,7.40
2023-02-06T03:51:10.180Z,7.50
2023-02-06T03:53:39.672Z,6.95
2023-02-06T03:56:11.200Z,7.07
2023-02-06T03:58:38.312Z,6.45
2023-02-06T04:01:07.162Z,6.68
2023-02-06T04:03:34.592Z,7.43
2023-02-06T04:06:01.527Z,6.45
2023-02-06T04:08:28.599Z,6.43
2023-02-06T04:10:55.428Z,6.80
2023-02-06T04:13:22.392Z,7.00
2023-02-06T04:15:49.266Z,7.25
2023-02-06T04:18:16.362Z,6.15
2023-02-06T04:20:43.155Z,7.30
2023-02-06T04:23:10.234Z,6.30
2023-02-06T04:25:37.355Z,6.90
2023-02-06T04:28:04.644Z,7.22
2023-02-06T04:30:31.488Z,7.15
2023-02-06T04:32:58.401Z,6.90
2023-02-06T04:35:25.466Z,7.75
2023-02-06T04:37:52.401Z,7.07
2023-02-06T04:40:19.307Z,7.35
2023-02-06T04:42:47.033Z,7.07
2023-02-06T04:45:13.906Z,8.02
2023-02-06T04:47:40.916Z,7.15
2023-02-06T04:50:08.231Z,6.65
2023-02-06T04:52:35.165Z,6.85
2023-02-06T04:55:02.042Z,6.43
2023-02-06T04:57:29.077Z,6.97
2023-02-06T04:59:55.868Z,7.40
2023-02-06T05:02:22.822Z,7.00
2023-02-06T05:04:49.693Z,7.53
2023-02-06T05:07:16.700Z,7.05
2023-02-06T05:09:43.588Z,8.82
2023-02-06T05:12:14.211Z,7.78
2023-02-06T05:14:41.230Z,8.35
2023-02-06T05:17:08.165Z,7.47
2023-02-06T05:19:34.925Z,7.32
2023-02-06T05:22:02.041Z,8.00
2023-02-06T05:24:29.259Z,7.13
2023-02-06T05:26:58.474Z,8.25
2023-02-06T05:29:26.067Z,7.68
2023-02-06T05:31:54.355Z,7.22
2023-02-06T05:34:21.235Z,7.28
2023-02-06T05:36:48.778Z,7.90
2023-02-06T05:39:15.644Z,52.42
2023-02-06T05:41:42.630Z,43.05
2023-02-06T05:44:11.405Z,27.52
2023-02-06T05:46:38.641Z,33.65
2023-02-06T05:49:05.998Z,12.25
2023-02-06T05:51:32.967Z,28.63
2023-02-06T05:53:59.838Z,14.07
2023-02-06T05:56:27.044Z,9.07
2023-02-06T05:58:53.795Z,10.30
2023-02-06T06:01:20.840Z,8.90
2023-02-06T06:03:47.958Z,7.95
2023-02-06T06:06:14.905Z,8.20
2023-02-06T06:08:41.828Z,7.90
2023-02-06T06:11:09.101Z,8.23
2023-02-06T06:13:36.176Z,7.38
2023-02-06T06:16:03.387Z,7.63
2023-02-06T06:18:30.556Z,7.53
2023-02-06T06:20:57.487Z,8.32
2023-02-06T06:23:24.280Z,9.50
2023-02-06T06:25:51.218Z,7.53
2023-02-06T06:28:18.117Z,9.05
2023-02-06T06:30:45.250Z,6.40
2023-02-06T06:33:14.315Z,7.32
2023-02-06T06:35:41.505Z,8.23
2023-02-06T06:38:08.704Z,7.22
2023-02-06T06:40:35.829Z,8.10
2023-02-06T06:43:02.627Z,8.57
2023-02-06T06:45:29.566Z,7.80
2023-02-06T06:47:56.416Z,8.82
2023-02-06T06:50:23.454Z,9.30
2023-02-06T06:52:50.265Z,9.13
2023-02-06T06:55:19.621Z,8.07
2023-02-06T06:57:47.166Z,6.78
2023-02-06T07:00:16.063Z,6.95
2023-02-06T07:02:43.500Z,6.55
2023-02-06T07:05:10.701Z,7.43
2023-02-06T07:07:39.626Z,7.57
2023-02-06T07:10:08.383Z,7.20
2023-02-06T07:12:35.342Z,6.60
2023-02-06T07:15:02.496Z,7.65
2023-02-06T07:17:29.276Z,7.70
2023-02-06T07:19:56.383Z,7.18
2023-02-06T07:22:23.157Z,7.55
2023-02-06T07:24:50.425Z,12.05
2023-02-06T07:27:17.320Z,7.93
2023-02-06T07:29:44.465Z,6.97
2023-02-06T07:32:11.662Z,6.50
2023-02-06T07:34:38.939Z,8.70
2023-02-06T07:37:05.784Z,24.67
2023-02-06T07:39:33.296Z,18.25
2023-02-06T07:42:00.373Z,7.97
2023-02-06T07:44:33.246Z,9.65
2023-02-06T07:47:00.251Z,10.73
2023-02-06T07:49:27.130Z,7.13
2023-02-06T07:51:54.187Z,12.57
2023-02-06T07:54:21.197Z,8.27
2023-02-06T07:56:48.030Z,7.55
2023-02-06T07:59:15.205Z,8.07
2023-02-06T08:01:42.021Z,7.05
2023-02-06T08:04:08.957Z,8.90
2023-02-06T08:06:36.122Z,10.45
2023-02-06T08:09:02.997Z,8.48
2023-02-06T08:11:31.065Z,8.50
2023-02-06T08:13:58.117Z,8.52
2023-02-06T08:16:25.208Z,8.32
2023-02-06T08:18:52.529Z,8.75
2023-02-06T08:21:22.176Z,8.63
2023-02-06T08:23:55.280Z,7.95
2023-02-06T08:26:23.337Z,8.40
2023-02-06T08:28:52.184Z,8.07
2023-02-06T08:31:23.706Z,7.68
2023-02-06T08:33:51.409Z,8.73
2023-02-06T08:36:20.278Z,8.15
2023-02-06T08:38:48.134Z,8.63
2023-02-06T08:41:27.367Z,8.90
2023-02-06T08:43:59.140Z,9.00
2023-02-06T08:46:31.773Z,9.00
2023-02-06T08:49:05.104Z,8.82
2023-02-06T08:51:33.372Z,12.88
2023-02-06T08:54:02.226Z,18.50
2023-02-06T08:56:30.518Z,8.82
2023-02-06T08:59:01.892Z,9.95
2023-02-06T09:01:31.672Z,9.82
2023-02-06T09:04:00.300Z,8.52
2023-02-06T09:06:28.450Z,7.90
2023-02-06T09:08:57.128Z,9.82
2023-02-06T09:11:25.742Z,8.00
2023-02-06T09:13:56.262Z,9.60
2023-02-06T09:16:25.552Z,8.95
2023-02-06T09:19:01.291Z,9.25
2023-02-06T09:21:33.629Z,9.45
2023-02-06T09:24:03.978Z,9.60
2023-02-06T09:26:33.920Z,9.95
2023-02-06T09:29:03.277Z,7.78
2023-02-06T09:31:35.347Z,10.82
2023-02-06T09:34:03.377Z,12.40
2023-02-06T09:36:30.708Z,11.43
2023-02-06T09:38:58.348Z,8.70
2023-02-06T09:41:42.947Z,8.60
2023-02-06T09:44:27.385Z,8.80
2023-02-06T09:47:25.459Z,10.00
2023-02-06T09:50:08.492Z,11.13
2023-02-06T09:53:05.873Z,10.45
2023-02-06T09:55:50.350Z,16.17
2023-02-06T09:58:19.210Z,13.77
2023-02-06T10:00:51.893Z,18.50
2023-02-06T10:03:52.143Z,14.50
2023-02-06T10:06:24.142Z,10.05
2023-02-06T10:08:58.031Z,11.27
2023-02-06T10:11:54.520Z,14.30
2023-02-06T10:14:31.168Z,12.32
2023-02-06T10:17:03.167Z,11.80
2023-02-06T10:19:54.803Z,13.23
2023-02-06T10:22:31.560Z,10.93
2023-02-06T10:25:40.576Z,10.93
2023-02-06T10:28:29.385Z,12.48
2023-02-06T10:31:17.920Z,12.55
2023-02-06T10:33:50.742Z,9.73
2023-02-06T10:36:35.595Z,6.95
2023-02-06T10:39:26.305Z,8.10
2023-02-06T10:42:09.189Z,7.68
2023-02-06T10:45:06.592Z,7.15
2023-02-06T10:47:54.340Z,9.25
2023-02-06T10:50:30.047Z,13.93
2023-02-06T10:53:01.805Z,9.98
2023-02-06T10:55:45.564Z,7.22
2023-02-06T10:58:25.424Z,9.23
2023-02-06T11:00:53.401Z,9.98
2023-02-06T11:03:24.400Z,7.50
2023-02-06T11:05:52.779Z,7.85
2023-02-06T11:08:27.970Z,6.18
2023-02-06T11:10:55.444Z,7.75
2023-02-06T11:13:34.177Z,7.45
2023-02-06T11:16:02.983Z,8.18
2023-02-06T11:18:41.861Z,6.82
2023-02-06T11:21:10.543Z,7.72
2023-02-06T11:23:37.565Z,9.32
2023-02-06T11:26:15.318Z,10.07
2023-02-06T11:28:54.545Z,8.52
2023-02-06T11:31:41.179Z,7.57
2023-02-06T11:34:22.010Z,12.00
2023-02-06T11:36:54.386Z,9.43
2023-02-06T11:39:23.941Z,9.25
2023-02-06T11:42:19.800Z,7.22
2023-02-06T11:44:52.163Z,7.43
2023-02-06T11:47:32.455Z,6.20
2023-02-06T11:50:14.879Z,8.25
2023-02-06T11:52:46.914Z,7.00
2023-02-06T11:55:29.807Z,9.00
2023-02-06T11:58:12.300Z,8.82
2023-02-06T12:00:41.956Z,11.00
2023-02-06T12:03:45.031Z,10.40
2023-02-06T12:06:16.280Z,7.75
2023-02-06T12:08:49.939Z,7.75
2023-02-06T12:11:19.559Z,7.97
2023-02-06T12:13:52.477Z,11.20
2023-02-06T12:16:20.582Z,8.05
2023-02-06T12:18:52.750Z,11.15
2023-02-06T12:21:47.194Z,10.68
2023-02-06T12:24:40.805Z,6.80
2023-02-06T12:27:23.236Z,6.85
2023-02-06T12:30:21.759Z,7.28
2023-02-06T12:32:55.650Z,7.25
2023-02-06T12:35:44.921Z,8.55
2023-02-06T12:38:37.158Z,7.45
2023-02-06T12:41:25.163Z,7.10
2023-02-06T12:43:59.471Z,9.77
2023-02-06T12:46:28.363Z,10.30
2023-02-06T12:49:07.809Z,6.90
2023-02-06T12:51:53.645Z,6.85
2023-02-06T12:54:31.884Z,7.53
2023-02-06T12:57:19.037Z,8.70
2023-02-06T12:59:58.326Z,10.27
2023-02-06T13:02:59.576Z,9.90
2023-02-06T13:05:44.460Z,8.85
2023-02-06T13:08:18.682Z,15.93
2023-02-06T13:10:50.668Z,10.43
2023-02-06T13:13:35.817Z,15.13
2023-02-06T13:16:03.999Z,13.02
2023-02-06T13:18:44.582Z,7.00
2023-02-06T13:21:24.483Z,8.05
2023-02-06T13:24:12.962Z,8.95
2023-02-06T13:26:46.363Z,9.60
2023-02-06T13:29:33.921Z,11.40
2023-02-06T13:32:13.151Z,10.27
2023-02-06T13:34:44.289Z,8.93
2023-02-06T13:37:34.793Z,8.75
2023-02-06T13:40:22.890Z,8.57
2023-02-06T13:43:20.028Z,9.73
2023-02-06T13:45:51.142Z,9.45
2023-02-06T13:48:48.394Z,8.35
2023-02-06T13:51:40.229Z,7.95
2023-02-06T13:54:28.426Z,7.72
2023-02-06T13:57:16.757Z,10.25
2023-02-06T13:59:54.999Z,8.93
2023-02-06T14:02:35.552Z,9.15
2023-02-06T14:05:05.553Z,9.93
2023-02-06T14:07:54.072Z,7.68
2023-02-06T14:10:52.613Z,9.02
2023-02-06T14:13:55.047Z,10.77
2023-02-06T14:16:27.892Z,12.57
2023-02-06T14:19:16.893Z,11.88
2023-02-06T14:22:13.440Z,10.48
2023-02-06T14:24:52.666Z,9.35
2023-02-06T14:27:35.471Z,12.73
2023-02-06T14:30:31.291Z,20.95
2023-02-06T14:33:15.380Z,15.60
2023-02-06T14:35:54.055Z,10.23
2023-02-06T14:38:39.401Z,7.70
2023-02-06T14:41:06.919Z,9.30
2023-02-06T14:43:39.416Z,11.88
2023-02-06T14:46:12.369Z,10.15
2023-02-06T14:48:53.905Z,9.88
2023-02-06T14:54:45.730Z,9.20
2023-02-06T14:57:18.614Z,9.40
2023-02-06T15:00:11.477Z,10.32
2023-02-06T15:02:38.818Z,11.85
2023-02-06T15:05:06.724Z,12.85
2023-02-06T15:07:37.960Z,14.07
2023-02-06T15:10:13.170Z,13.60
2023-02-06T15:12:40.575Z,13.68
2023-02-06T15:15:10.340Z,14.27
2023-02-06T15:17:38.837Z,10.05
2023-02-06T15:20:20.858Z,8.80
2023-02-06T15:22:47.961Z,9.98
2023-02-06T15:25:31.510Z,9.25
2023-02-06T15:28:05.158Z,10.18
2023-02-06T15:30:34.018Z,8.57
2023-02-06T15:33:01.607Z,9.98
2023-02-06T15:35:41.954Z,12.57
2023-02-06T15:38:14.982Z,13.75
2023-02-06T15:40:46.632Z,9.38
2023-02-06T15:43:16.487Z,10.90
2023-02-06T15:45:44.901Z,10.77
2023-02-06T15:48:19.719Z,11.75
2023-02-06T15:51:20.509Z,13.82
2023-02-06T15:53:49.592Z,11.68
2023-02-06T15:56:25.030Z,11.20
2023-02-06T15:59:01.877Z,11.60
2023-02-06T16:01:37.269Z,14.65
2023-02-06T16:04:29.356Z,13.57
2023-02-06T16:07:20.810Z,19.63
2023-02-06T16:09:53.229Z,11.02
2023-02-06T16:12:21.449Z,12.95
2023-02-06T16:14:56.162Z,15.52
2023-02-06T16:17:35.349Z,11.70
2023-02-06T16:20:06.079Z,15.23
2023-02-06T16:22:38.529Z,24.38
2023-02-06T16:25:13.547Z,20.40
2023-02-06T16:27:46.313Z,18.45
2023-02-06T16:30:35.146Z,14.98
2023-02-06T16:33:33.314Z,14.60
2023-02-06T16:36:00.716Z,14.68
2023-02-06T16:38:27.488Z,11.10
2023-02-06T16:40:54.615Z,12.90
2023-02-06T16:43:22.403Z,10.98
2023-02-06T16:45:50.011Z,11.93
2023-02-06T16:48:18.021Z,11.20
2023-02-06T16:50:48.377Z,11.10
2023-02-06T16:53:25.779Z,14.25
2023-02-06T16:55:53.222Z,11.38
2023-02-06T16:58:23.425Z,11.65
2023-02-06T17:00:51.296Z,12.25
2023-02-06T17:03:18.367Z,10.50
2023-02-06T17:05:47.902Z,9.82
2023-02-06T17:08:23.875Z,11.27
2023-02-06T17:10:51.573Z,12.55
2023-02-06T17:13:21.519Z,11.48
2023-02-06T17:15:49.600Z,11.82
2023-02-06T17:18:18.466Z,13.23
2023-02-06T17:20:47.950Z,11.60
2023-02-06T17:23:15.671Z,12.10
2023-02-06T17:25:45.164Z,18.42
2023-02-06T17:28:15.624Z,15.35
2023-02-06T17:30:44.778Z,15.43
2023-02-06T17:33:12.419Z,10.77
2023-02-06T17:35:39.338Z,12.63
2023-02-06T17:38:09.023Z,11.23
2023-02-06T17:40:37.866Z,13.02
2023-02-06T17:43:05.759Z,14.65
2023-02-06T17:45:35.370Z,18.05
2023-02-06T17:48:02.518Z,14.88
2023-02-06T17:50:30.707Z,17.25
2023-02-06T17:52:59.204Z,10.32
2023-02-06T17:55:28.117Z,14.38
2023-02-06T17:57:55.687Z,12.85
2023-02-06T18:00:24.627Z,14.85
2023-02-06T18:02:53.218Z,13.30
2023-02-06T18:05:21.123Z,10.90
2023-02-06T18:07:50.690Z,13.60
2023-02-06T18:10:19.901Z,11.40
2023-02-06T18:12:47.539Z,12.45
2023-02-06T18:15:15.525Z,11.95
2023-02-06T18:17:43.512Z,13.30
2023-02-06T18:20:11.998Z,12.77
2023-02-06T18:22:41.317Z,15.93
2023-02-06T18:25:14.451Z,12.05
2023-02-06T18:27:45.189Z,11.52
2023-02-06T18:30:13.031Z,10.98
2023-02-06T18:32:39.906Z,11.30
2023-02-06T18:35:10.318Z,9.32
2023-02-06T18:37:37.406Z,10.07
2023-02-06T18:40:04.719Z,10.48
2023-02-06T18:42:50.578Z,10.98
2023-02-06T18:45:18.882Z,11.43
2023-02-06T18:47:45.921Z,12.25
2023-02-06T18:50:13.250Z,9.38
2023-02-06T18:52:40.066Z,9.95
2023-02-06T18:55:08.698Z,11.48
2023-02-06T18:57:36.793Z,10.23
2023-02-06T19:00:11.662Z,11.38
2023-02-06T19:02:38.605Z,11.85
2023-02-06T19:05:05.490Z,12.65
2023-02-06T19:07:32.802Z,9.35
2023-02-06T19:10:01.403Z,9.68
2023-02-06T19:12:29.608Z,10.40
2023-02-06T19:14:57.946Z,8.95
2023-02-06T19:17:27.282Z,9.32
2023-02-06T19:19:54.874Z,9.70
2023-02-06T19:22:22.054Z,8.40
2023-02-06T19:24:51.504Z,9.63
2023-02-06T19:27:18.554Z,12.32
2023-02-06T19:29:46.157Z,26.50
2023-02-06T19:32:13.853Z,14.07
2023-02-06T19:34:42.076Z,13.27
2023-02-06T19:37:10.281Z,9.98
2023-02-06T19:39:40.259Z,11.40
2023-02-06T19:42:10.206Z,8.90
2023-02-06T19:44:37.512Z,9.98
2023-02-06T19:47:04.578Z,9.07
2023-02-06T19:49:31.729Z,9.15
2023-02-06T19:51:58.679Z,9.15
2023-02-06T19:54:25.744Z,10.07
2023-02-06T19:56:52.616Z,10.57
2023-02-06T19:59:25.978Z,10.38
2023-02-06T20:01:58.259Z,9.00
2023-02-06T20:04:28.727Z,10.23
2023-02-06T20:06:56.422Z,9.85
2023-02-06T20:09:24.378Z,12.60
2023-02-06T20:11:52.241Z,12.02
2023-02-06T20:14:19.266Z,11.93
2023-02-06T20:16:47.513Z,12.48
2023-02-06T20:19:18.686Z,16.45
2023-02-06T20:21:49.352Z,11.60
2023-02-06T20:24:20.908Z,13.95
2023-02-06T20:26:49.839Z,14.27
2023-02-06T20:29:25.338Z,12.05
2023-02-06T20:31:52.964Z,10.52
2023-02-06T20:34:21.801Z,10.05
2023-02-06T20:36:49.908Z,10.48
2023-02-06T20:39:18.184Z,12.30
2023-02-06T20:41:45.971Z,12.00
2023-02-06T20:44:14.439Z,10.43
2023-02-06T20:46:42.409Z,11.18
2023-02-06T20:49:16.002Z,9.48
2023-02-06T20:51:43.042Z,8.55
2023-02-06T20:54:13.553Z,9.52
2023-02-06T20:56:41.087Z,10.25
2023-02-06T20:59:11.917Z,9.75
2023-02-06T21:01:40.044Z,9.88
2023-02-06T21:04:09.577Z,11.02
2023-02-06T21:06:37.413Z,10.23
2023-02-06T21:09:06.356Z,10.32
2023-02-06T21:11:36.854Z,10.32
2023-02-06T21:14:05.353Z,11.02
2023-02-06T21:16:33.347Z,11.20
2023-02-06T21:19:01.657Z,11.73
2023-02-06T21:21:28.639Z,10.43
2023-02-06T21:23:55.980Z,12.65
2023-02-06T21:26:24.014Z,12.05
2023-02-06T21:28:51.914Z,12.23
2023-02-06T21:31:24.680Z,12.73
2023-02-06T21:33:52.750Z,13.50
2023-02-06T21:36:21.233Z,11.68
2023-02-06T21:38:48.278Z,10.82
2023-02-06T21:41:17.733Z,10.32
2023-02-06T21:43:45.579Z,9.43
2023-02-06T21:46:13.303Z,8.73
2023-02-06T21:48:41.681Z,7.05
2023-02-06T21:51:13.408Z,9.63
2023-02-06T21:53:40.690Z,13.20
2023-02-06T21:56:28.414Z,10.65
2023-02-06T21:58:55.623Z,10.20
2023-02-06T22:01:26.477Z,8.77
2023-02-06T22:03:54.111Z,7.88
2023-02-06T22:06:21.564Z,7.90
2023-02-06T22:08:54.312Z,7.45
2023-02-06T22:11:27.270Z,9.48
2023-02-06T22:14:02.483Z,6.93
2023-02-06T22:16:29.753Z,8.95
2023-02-06T22:18:57.287Z,8.65
2023-02-06T22:21:26.952Z,8.13
2023-02-06T22:23:57.349Z,8.88
2023-02-06T22:26:25.357Z,8.65
2023-02-06T22:28:52.502Z,10.27
2023-02-06T22:31:24.673Z,10.40
2023-02-06T22:33:52.503Z,12.00
2023-02-06T22:36:24.386Z,11.32
2023-02-06T22:39:12.553Z,11.48
2023-02-06T22:41:44.798Z,12.05
2023-02-06T22:44:16.296Z,11.27
2023-02-06T22:46:46.432Z,11.07
2023-02-06T22:49:13.847Z,8.27
2023-02-06T22:51:41.654Z,8.23
2023-02-06T22:54:11.910Z,8.55
2023-02-06T22:56:41.156Z,9.02
2023-02-06T22:59:22.786Z,9.02
2023-02-06T23:01:55.255Z,9.00
2023-02-06T23:04:28.394Z,11.02
2023-02-06T23:06:55.735Z,11.55
2023-02-06T23:09:29.414Z,11.38
2023-02-06T23:11:58.427Z,12.95
2023-02-06T23:14:26.431Z,14.80
2023-02-06T23:16:53.516Z,14.35
2023-02-06T23:19:20.806Z,14.88
2023-02-06T23:21:49.465Z,13.20
2023-02-06T23:24:16.822Z,11.88
2023-02-06T23:26:45.965Z,13.70
2023-02-06T23:29:17.988Z,12.23
2023-02-06T23:31:46.844Z,12.98
2023-02-06T23:34:14.479Z,13.38
2023-02-06T23:36:41.319Z,11.60
2023-02-06T23:39:08.350Z,11.93
2023-02-06T23:41:35.432Z,11.98
2023-02-06T23:44:05.186Z,11.13
2023-02-06T23:46:34.742Z,11.27
2023-02-06T23:49:01.683Z,10.52
2023-02-06T23:51:28.734Z,10.68
2023-02-06T23:53:55.626Z,11.90
2023-02-06T23:56:29.116Z,10.15
2023-02-06T23:58:56.918Z,12.23
